createdAt,value
2023-04-18T00:00:07.205Z,8.70
2023-04-18T00:01:07.188Z,8.76
2023-04-18T00:02:07.296Z,8.69
2023-04-18T00:03:07.324Z,8.66
2023-04-18T00:04:07.354Z,8.70
2023-04-18T00:05:07.180Z,8.64
2023-04-18T00:06:07.198Z,8.67
2023-04-18T00:07:07.155Z,8.73
2023-04-18T00:08:07.130Z,8.56
2023-04-18T00:09:07.168Z,8.67
2023-04-18T00:10:07.116Z,8.66
2023-04-18T00:11:07.113Z,8.66
2023-04-18T00:12:07.113Z,8.61
2023-04-18T00:13:07.714Z,8.64
2023-04-18T00:14:07.096Z,8.63
2023-04-18T00:15:07.081Z,8.55
2023-04-18T00:16:07.067Z,8.55
2023-04-18T00:17:07.185Z,8.58
2023-04-18T00:18:07.317Z,8.52
2023-04-18T00:19:07.060Z,8.46
2023-04-18T00:20:07.065Z,8.55
2023-04-18T00:21:07.051Z,8.48
2023-04-18T00:22:56.516Z,8.48
2023-04-18T00:23:56.514Z,8.46
2023-04-18T00:24:58.379Z,8.45
2023-04-18T00:25:58.603Z,8.36
2023-04-18T00:26:57.589Z,8.45
2023-04-18T00:27:57.616Z,8.49
2023-04-18T00:28:58.471Z,8.51
2023-04-18T00:29:57.557Z,8.41
2023-04-18T00:30:57.601Z,8.52
2023-04-18T00:31:57.571Z,8.49
2023-04-18T00:32:57.584Z,8.45
2023-04-18T00:33:57.532Z,8.46
2023-04-18T00:34:57.514Z,8.42
2023-04-18T00:35:57.627Z,8.42
2023-04-18T00:36:57.523Z,8.44
2023-04-18T00:37:58.337Z,8.42
2023-04-18T00:38:57.490Z,8.28
2023-04-18T00:39:57.472Z,8.37
2023-04-18T00:40:57.481Z,8.38
2023-04-18T00:41:57.483Z,8.38
2023-04-18T00:42:57.458Z,8.36
2023-04-18T00:43:57.449Z,8.36
2023-04-18T00:44:57.449Z,8.33
2023-04-18T00:45:57.485Z,8.31
2023-04-18T00:46:57.448Z,8.31
2023-04-18T00:47:57.525Z,8.27
2023-04-18T00:48:57.410Z,8.20
2023-04-18T00:49:57.451Z,8.30
2023-04-18T00:50:57.395Z,8.15
2023-04-18T00:51:57.402Z,8.19
2023-04-18T00:52:57.383Z,8.23
2023-04-18T00:53:57.382Z,8.20
2023-04-18T00:54:57.366Z,8.13
2023-04-18T00:55:57.891Z,8.19
2023-04-18T00:56:57.357Z,8.15
2023-04-18T00:57:57.348Z,8.19
2023-04-18T00:58:57.336Z,8.15
2023-04-18T00:59:58.326Z,8.09
2023-04-18T01:00:57.322Z,8.12
2023-04-18T01:01:57.366Z,8.08
2023-04-18T01:02:57.394Z,8.10
2023-04-18T01:03:57.415Z,8.01
2023-04-18T01:04:57.291Z,8.05
2023-04-18T01:05:57.275Z,8.06
2023-04-18T01:06:57.277Z,8.05
2023-04-18T01:07:57.262Z,8.00
2023-04-18T01:08:57.260Z,7.91
2023-04-18T01:09:57.249Z,7.95
2023-04-18T01:10:57.245Z,7.97
2023-04-18T01:11:57.269Z,7.91
2023-04-18T01:12:57.220Z,7.91
2023-04-18T01:13:57.245Z,7.87
2023-04-18T01:14:57.218Z,7.90
2023-04-18T01:15:57.235Z,7.88
2023-04-18T01:16:57.892Z,7.73
2023-04-18T01:17:57.230Z,7.80
2023-04-18T01:18:57.180Z,7.77
2023-04-18T01:19:57.184Z,7.77
2023-04-18T01:20:57.190Z,7.76
2023-04-18T01:21:57.171Z,7.77
2023-04-18T01:22:57.154Z,7.60
2023-04-18T01:23:57.144Z,7.61
2023-04-18T01:24:57.160Z,7.58
2023-04-18T01:25:57.152Z,7.53
2023-04-18T01:26:57.117Z,7.54
2023-04-18T01:27:57.111Z,7.56
2023-04-18T01:28:57.099Z,7.56
2023-04-18T01:29:57.894Z,7.53
2023-04-18T01:30:57.114Z,7.47
2023-04-18T01:31:57.072Z,7.50
2023-04-18T01:32:57.074Z,7.51
2023-04-18T01:33:57.056Z,7.53
2023-04-18T01:34:57.047Z,7.48
2023-04-18T01:35:57.046Z,7.51
2023-04-18T01:36:57.034Z,7.50
2023-04-18T01:37:57.039Z,7.54
2023-04-18T01:38:57.021Z,7.47
2023-04-18T01:39:57.008Z,7.42
2023-04-18T01:40:57.000Z,7.47
2023-04-18T01:41:56.992Z,7.40
2023-04-18T01:42:57.021Z,7.45
2023-04-18T01:43:56.977Z,7.39
2023-04-18T01:44:56.967Z,7.47
2023-04-18T01:45:56.984Z,7.47
2023-04-18T01:46:57.065Z,7.54
2023-04-18T01:47:57.044Z,7.53
2023-04-18T01:48:56.935Z,7.69
2023-04-18T01:49:56.930Z,7.61
2023-04-18T01:50:56.916Z,7.58
2023-04-18T01:51:56.929Z,7.58
2023-04-18T01:52:56.926Z,7.58
2023-04-18T01:53:56.893Z,7.60
2023-04-18T01:54:57.896Z,7.63
2023-04-18T01:55:56.881Z,7.69
2023-04-18T01:56:56.879Z,7.58
2023-04-18T01:57:56.871Z,7.67
2023-04-18T01:58:56.863Z,7.80
2023-04-18T01:59:56.859Z,7.73
2023-04-18T02:00:56.859Z,7.77
2023-04-18T02:01:56.918Z,7.82
2023-04-18T02:02:56.988Z,7.79
2023-04-18T02:03:56.910Z,7.69
2023-04-18T02:04:56.822Z,7.70
2023-04-18T02:05:56.802Z,7.79
2023-04-18T02:06:56.807Z,7.80
2023-04-18T02:07:56.782Z,7.76
2023-04-18T02:08:56.781Z,7.77
2023-04-18T02:09:56.785Z,7.79
2023-04-18T02:10:56.772Z,7.80
2023-04-18T02:11:56.759Z,7.79
2023-04-18T02:12:56.744Z,7.75
2023-04-18T02:13:56.750Z,7.77
2023-04-18T02:14:56.753Z,7.77
2023-04-18T02:15:56.798Z,7.85
2023-04-18T02:16:56.773Z,7.82
2023-04-18T02:17:56.749Z,7.75
2023-04-18T02:18:56.715Z,7.79
2023-04-18T02:19:57.484Z,7.76
2023-04-18T02:20:56.687Z,7.76
2023-04-18T02:21:56.683Z,7.75
2023-04-18T02:22:56.670Z,7.80
2023-04-18T02:23:56.668Z,7.73
2023-04-18T02:24:56.655Z,7.69
2023-04-18T02:25:56.652Z,7.79
2023-04-18T02:26:56.636Z,7.76
2023-04-18T02:27:56.634Z,7.72
2023-04-18T02:28:56.613Z,7.73
2023-04-18T02:29:56.611Z,7.83
2023-04-18T02:30:56.605Z,7.79
2023-04-18T02:31:56.637Z,7.67
2023-04-18T02:32:56.626Z,7.67
2023-04-18T02:33:56.579Z,7.67
2023-04-18T02:34:56.591Z,7.73
2023-04-18T02:35:56.573Z,7.67
2023-04-18T02:36:56.562Z,7.69
2023-04-18T02:37:56.558Z,7.58
2023-04-18T02:38:56.533Z,7.67
2023-04-18T02:39:56.533Z,7.63
2023-04-18T02:40:56.552Z,7.72
2023-04-18T02:41:56.518Z,7.70
2023-04-18T02:44:02.794Z,7.61
2023-04-18T02:45:02.782Z,7.60
2023-04-18T02:46:03.945Z,7.75
2023-04-18T02:47:03.855Z,7.67
2023-04-18T02:48:03.858Z,7.70
2023-04-18T02:49:03.831Z,7.56
2023-04-18T02:50:04.839Z,7.57
2023-04-18T02:51:03.828Z,7.67
2023-04-18T02:52:03.820Z,7.70
2023-04-18T02:53:03.815Z,7.60
2023-04-18T02:54:03.799Z,7.72
2023-04-18T02:55:03.814Z,7.73
2023-04-18T02:56:03.778Z,7.60
2023-04-18T02:57:03.782Z,7.60
2023-04-18T02:58:04.729Z,7.60
2023-04-18T02:59:03.758Z,7.70
2023-04-18T03:00:03.755Z,7.61
2023-04-18T03:01:03.778Z,7.67
2023-04-18T03:02:03.821Z,7.67
2023-04-18T03:03:03.858Z,7.57
2023-04-18T03:04:03.723Z,7.67
2023-04-18T03:05:03.849Z,7.67
2023-04-18T03:06:03.710Z,7.54
2023-04-18T03:07:03.698Z,7.67
2023-04-18T03:08:03.678Z,7.67
2023-04-18T03:09:03.672Z,7.61
2023-04-18T03:10:03.694Z,7.66
2023-04-18T03:11:03.663Z,7.69
2023-04-18T03:12:03.651Z,7.76
2023-04-18T03:13:03.665Z,7.63
2023-04-18T03:14:03.637Z,7.63
2023-04-18T03:15:03.633Z,7.77
2023-04-18T03:16:03.675Z,7.72
2023-04-18T03:17:03.609Z,7.69
2023-04-18T03:18:03.649Z,7.75
2023-04-18T03:19:04.155Z,7.72
2023-04-18T03:20:03.607Z,7.79
2023-04-18T03:21:03.594Z,7.82
2023-04-18T03:22:03.613Z,7.67
2023-04-18T03:23:03.559Z,7.80
2023-04-18T03:24:03.558Z,7.77
2023-04-18T03:25:03.552Z,7.77
2023-04-18T03:26:03.539Z,7.69
2023-04-18T03:27:03.553Z,7.75
2023-04-18T03:28:03.511Z,7.69
2023-04-18T03:29:03.509Z,7.67
2023-04-18T03:30:03.498Z,7.66
2023-04-18T03:31:03.525Z,7.63
2023-04-18T03:32:03.478Z,7.72
2023-04-18T03:33:03.516Z,7.66
2023-04-18T03:34:03.465Z,7.75
2023-04-18T03:35:04.228Z,7.72
2023-04-18T03:36:03.450Z,7.75
2023-04-18T03:37:03.446Z,7.75
2023-04-18T03:38:03.432Z,7.76
2023-04-18T03:39:03.459Z,7.72
2023-04-18T03:40:03.430Z,7.69
2023-04-18T03:41:03.415Z,7.63
2023-04-18T03:42:03.402Z,7.67
2023-04-18T03:43:03.402Z,7.66
2023-04-18T03:44:03.395Z,7.72
2023-04-18T03:45:03.390Z,7.66
2023-04-18T03:46:03.427Z,7.72
2023-04-18T03:47:03.359Z,7.69
2023-04-18T03:48:03.474Z,7.60
2023-04-18T03:49:03.344Z,7.63
2023-04-18T03:50:03.348Z,7.57
2023-04-18T03:51:03.341Z,7.61
2023-04-18T03:52:03.342Z,7.58
2023-04-18T03:53:03.314Z,7.66
2023-04-18T03:54:03.320Z,7.51
2023-04-18T03:55:03.314Z,7.42
2023-04-18T03:56:03.328Z,7.56
2023-04-18T03:57:03.287Z,7.47
2023-04-18T03:58:03.271Z,7.42
2023-04-18T03:59:03.267Z,7.60
2023-04-18T04:00:03.257Z,7.48
2023-04-18T04:01:03.259Z,7.50
2023-04-18T04:02:03.353Z,7.58
2023-04-18T04:03:03.310Z,7.56
2023-04-18T04:04:03.263Z,7.57
2023-04-18T04:05:03.321Z,7.60
2023-04-18T04:06:03.232Z,7.53
2023-04-18T04:07:03.211Z,7.50
2023-04-18T04:08:03.193Z,7.51
2023-04-18T04:09:03.176Z,7.45
2023-04-18T04:10:03.209Z,7.53
2023-04-18T04:11:03.170Z,7.56
2023-04-18T04:12:03.154Z,7.54
2023-04-18T04:13:03.150Z,7.53
2023-04-18T04:14:03.140Z,7.47
2023-04-18T04:15:03.170Z,7.48
2023-04-18T04:16:03.147Z,7.33
2023-04-18T04:17:03.141Z,7.56
2023-04-18T04:18:03.152Z,7.48
2023-04-18T04:19:03.117Z,7.53
2023-04-18T04:20:03.117Z,7.61
2023-04-18T04:21:03.084Z,7.54
2023-04-18T04:22:03.087Z,7.61
2023-04-18T04:23:03.074Z,7.50
2023-04-18T04:24:03.059Z,7.53
2023-04-18T04:25:03.052Z,7.56
2023-04-18T04:26:03.065Z,7.57
2023-04-18T04:27:03.045Z,7.58
2023-04-18T04:28:03.048Z,7.56
2023-04-18T04:29:03.031Z,7.58
2023-04-18T04:30:03.033Z,7.51
2023-04-18T04:31:03.014Z,7.57
2023-04-18T04:32:03.036Z,7.56
2023-04-18T04:33:03.155Z,7.57
2023-04-18T04:34:03.743Z,7.66
2023-04-18T04:35:03.674Z,7.73
2023-04-18T04:36:02.970Z,7.63
2023-04-18T04:37:02.964Z,7.63
2023-04-18T04:38:02.953Z,7.73
2023-04-18T04:39:03.739Z,7.67
2023-04-18T04:40:02.941Z,7.63
2023-04-18T04:41:02.927Z,7.57
2023-04-18T04:42:02.911Z,7.56
2023-04-18T04:43:02.930Z,7.57
2023-04-18T04:44:02.898Z,7.48
2023-04-18T04:45:02.953Z,7.61
2023-04-18T04:46:02.938Z,7.43
2023-04-18T04:47:02.888Z,7.58
2023-04-18T04:48:02.926Z,7.70
2023-04-18T04:49:02.860Z,7.67
2023-04-18T04:50:02.850Z,7.57
2023-04-18T04:51:02.871Z,7.61
2023-04-18T04:52:02.834Z,7.53
2023-04-18T04:53:02.821Z,7.54
2023-04-18T04:54:02.845Z,7.50
2023-04-18T04:55:02.807Z,7.57
2023-04-18T04:56:02.800Z,7.45
2023-04-18T04:57:02.791Z,7.54
2023-04-18T04:58:02.781Z,7.61
2023-04-18T04:59:02.774Z,7.61
2023-04-18T05:00:02.759Z,7.53
2023-04-18T05:01:02.784Z,7.54
2023-04-18T05:02:02.903Z,7.56
2023-04-18T05:03:02.980Z,7.63
2023-04-18T05:04:02.861Z,7.51
2023-04-18T05:05:02.800Z,7.67
2023-04-18T05:06:02.724Z,7.56
2023-04-18T05:07:02.708Z,7.48
2023-04-18T05:08:02.716Z,7.51
2023-04-18T05:09:02.704Z,7.66
2023-04-18T05:10:02.686Z,7.57
2023-04-18T05:11:02.720Z,7.45
2023-04-18T05:12:02.664Z,7.50
2023-04-18T05:13:02.660Z,7.43
2023-04-18T05:14:02.671Z,7.43
2023-04-18T05:15:02.640Z,7.43
2023-04-18T05:16:02.681Z,7.56
2023-04-18T05:17:02.712Z,7.60
2023-04-18T05:18:02.748Z,7.60
2023-04-18T05:19:02.627Z,7.56
2023-04-18T05:20:02.621Z,7.60
2023-04-18T05:21:02.598Z,7.61
2023-04-18T05:22:02.581Z,7.63
2023-04-18T05:23:02.579Z,7.73
2023-04-18T05:24:02.569Z,7.67
2023-04-18T05:25:02.578Z,7.67
2023-04-18T05:26:02.568Z,7.67
2023-04-18T05:27:02.552Z,7.66
2023-04-18T05:28:02.539Z,7.63
2023-04-18T05:29:02.534Z,7.61
2023-04-18T05:30:02.527Z,7.69
2023-04-18T05:31:02.568Z,7.60
2023-04-18T05:32:03.247Z,7.45
2023-04-18T05:33:02.548Z,7.61
2023-04-18T05:34:02.492Z,7.60
2023-04-18T05:35:02.505Z,7.61
2023-04-18T05:36:02.474Z,7.54
2023-04-18T05:37:02.481Z,7.63
2023-04-18T05:38:02.486Z,7.48
2023-04-18T05:39:02.552Z,7.54
2023-04-18T05:40:02.450Z,7.42
2023-04-18T05:41:02.441Z,7.61
2023-04-18T05:42:02.489Z,7.47
2023-04-18T05:43:02.418Z,7.56
2023-04-18T05:44:05.747Z,7.54
2023-04-18T05:45:03.419Z,7.58
2023-04-18T05:46:02.448Z,7.66
2023-04-18T05:47:02.391Z,7.67
2023-04-18T05:48:02.540Z,7.83
2023-04-18T05:49:02.386Z,7.77
2023-04-18T05:50:02.394Z,7.77
2023-04-18T05:51:02.370Z,7.66
2023-04-18T05:52:02.390Z,7.79
2023-04-18T05:53:02.403Z,7.73
2023-04-18T05:54:03.357Z,7.80
2023-04-18T05:55:02.333Z,7.82
2023-04-18T05:56:02.320Z,7.91
2023-04-18T05:57:04.262Z,7.83
2023-04-18T05:58:02.303Z,7.87
2023-04-18T05:59:02.287Z,7.75
2023-04-18T06:00:02.420Z,7.82
2023-04-18T06:01:02.293Z,7.87
2023-04-18T06:02:02.309Z,7.77
2023-04-18T06:03:02.429Z,7.85
2023-04-18T06:04:02.406Z,7.95
2023-04-18T06:05:02.467Z,7.95
2023-04-18T06:06:02.305Z,7.93
2023-04-18T06:07:02.229Z,8.01
2023-04-18T06:08:02.230Z,7.95
2023-04-18T06:09:02.237Z,7.94
2023-04-18T06:10:02.241Z,7.93
2023-04-18T06:11:02.198Z,7.93
2023-04-18T06:12:02.183Z,7.90
2023-04-18T06:13:02.174Z,7.80
2023-04-18T06:14:02.273Z,7.75
2023-04-18T06:15:02.175Z,7.85
2023-04-18T06:16:02.719Z,7.87
2023-04-18T06:17:02.711Z,7.93
2023-04-18T06:18:02.327Z,7.94
2023-04-18T06:19:02.138Z,7.88
2023-04-18T06:20:02.769Z,7.90
2023-04-18T06:21:02.134Z,7.91
2023-04-18T06:22:02.132Z,7.98
2023-04-18T06:23:02.120Z,7.90
2023-04-18T06:24:02.094Z,7.87
2023-04-18T06:25:02.337Z,7.97
2023-04-18T06:26:02.082Z,7.93
2023-04-18T06:27:02.088Z,7.91
2023-04-18T06:28:02.095Z,7.83
2023-04-18T06:29:02.746Z,7.80
2023-04-18T06:30:02.076Z,7.88
2023-04-18T06:31:02.041Z,7.82
2023-04-18T06:32:02.137Z,7.83
2023-04-18T06:33:02.191Z,7.80
2023-04-18T06:34:02.007Z,7.80
2023-04-18T06:35:01.998Z,7.82
2023-04-18T06:36:02.033Z,7.87
2023-04-18T06:37:01.993Z,7.95
2023-04-18T06:38:02.075Z,7.77
2023-04-18T06:39:02.119Z,7.76
2023-04-18T06:40:02.008Z,7.83
2023-04-18T06:41:01.961Z,7.80
2023-04-18T06:42:01.947Z,7.75
2023-04-18T06:43:01.935Z,7.79
2023-04-18T06:44:04.523Z,7.73
2023-04-18T06:45:03.768Z,7.82
2023-04-18T06:46:02.017Z,7.85
2023-04-18T06:47:02.689Z,7.82
2023-04-18T06:48:01.938Z,7.88
2023-04-18T06:49:01.877Z,7.82
2023-04-18T06:50:01.925Z,7.93
2023-04-18T06:51:01.914Z,7.98
2023-04-18T06:52:34.236Z,7.76
2023-04-18T06:53:06.719Z,7.91
2023-04-18T06:54:01.872Z,7.83
2023-04-18T06:55:04.745Z,7.87
2023-04-18T06:56:03.263Z,7.82
2023-04-18T06:57:34.275Z,7.82
2023-04-18T06:58:01.837Z,7.94
2023-04-18T06:59:01.831Z,7.95
2023-04-18T07:00:01.848Z,7.93
2023-04-18T07:01:01.869Z,8.05
2023-04-18T07:02:01.866Z,8.03
2023-04-18T07:03:02.042Z,8.03
2023-04-18T07:04:02.847Z,8.06
2023-04-18T07:05:01.832Z,8.05
2023-04-18T07:06:02.758Z,8.00
2023-04-18T07:07:01.750Z,8.00
2023-04-18T07:08:03.388Z,8.09
2023-04-18T07:09:02.246Z,8.09
2023-04-18T07:10:02.372Z,8.08
2023-04-18T07:11:01.715Z,8.05
2023-04-18T07:12:03.272Z,8.09
2023-04-18T07:13:01.866Z,8.05
2023-04-18T07:15:08.908Z,8.09
2023-04-18T07:16:09.891Z,8.16
2023-04-18T07:17:09.483Z,8.23
2023-04-18T07:18:14.474Z,8.34
2023-04-18T07:19:09.372Z,8.30
2023-04-18T07:20:12.358Z,8.28
2023-04-18T07:21:09.371Z,8.41
2023-04-18T07:23:15.969Z,8.33
2023-04-18T07:24:16.212Z,8.30
2023-04-18T07:25:16.021Z,8.30
2023-04-18T07:26:15.982Z,8.33
2023-04-18T07:27:17.023Z,8.36
2023-04-18T07:28:17.033Z,8.38
2023-04-18T07:29:17.007Z,8.46
2023-04-18T07:30:17.144Z,8.42
2023-04-18T07:31:32.121Z,8.45
2023-04-18T07:32:27.520Z,8.46
2023-04-18T07:33:18.039Z,8.60
2023-04-18T07:34:17.598Z,8.53
2023-04-18T07:35:17.333Z,8.51
2023-04-18T07:36:16.978Z,8.63
2023-04-18T07:37:17.342Z,8.69
2023-04-18T07:38:16.996Z,8.58
2023-04-18T07:39:17.017Z,8.66
2023-04-18T07:40:49.144Z,8.66
2023-04-18T07:41:19.589Z,8.66
2023-04-18T07:42:19.639Z,8.56
2023-04-18T07:43:19.233Z,8.51
2023-04-18T07:44:18.783Z,8.53
2023-04-18T07:45:16.880Z,8.67
2023-04-18T07:46:16.918Z,8.63
2023-04-18T07:47:16.870Z,8.71
2023-04-18T07:48:49.658Z,8.69
2023-04-18T07:49:20.594Z,8.71
2023-04-18T07:50:17.607Z,8.66
2023-04-18T07:51:19.678Z,8.69
2023-04-18T07:52:17.017Z,8.64
2023-04-18T07:53:17.629Z,8.78
2023-04-18T07:54:16.874Z,8.69
2023-04-18T07:55:17.658Z,8.66
2023-04-18T07:56:16.824Z,8.82
2023-04-18T07:57:19.594Z,8.82
2023-04-18T07:58:17.815Z,8.84
2023-04-18T08:00:24.218Z,8.88
2023-04-18T08:01:25.984Z,8.89
2023-04-18T08:02:24.276Z,8.85
2023-04-18T08:03:24.503Z,8.89
2023-04-18T08:04:24.656Z,8.88
2023-04-18T08:05:24.191Z,8.91
2023-04-18T08:06:24.153Z,8.94
2023-04-18T08:07:26.084Z,9.02
2023-04-18T08:08:25.243Z,9.04
2023-04-18T08:09:25.233Z,9.00
2023-04-18T08:10:25.232Z,8.94
2023-04-18T08:11:25.220Z,8.92
2023-04-18T08:12:25.209Z,8.99
2023-04-18T08:13:25.222Z,8.97
2023-04-18T08:14:25.213Z,9.00
2023-04-18T08:15:25.207Z,9.02
2023-04-18T08:16:25.230Z,9.10
2023-04-18T08:17:25.211Z,9.14
2023-04-18T08:18:27.122Z,9.08
2023-04-18T08:19:26.994Z,9.10
2023-04-18T08:20:27.217Z,8.99
2023-04-18T08:21:25.163Z,9.10
2023-04-18T08:22:25.142Z,9.00
2023-04-18T08:23:27.126Z,9.03
2023-04-18T08:24:28.093Z,9.08
2023-04-18T08:26:28.050Z,9.11
2023-04-18T08:27:28.517Z,9.18
2023-04-18T08:28:29.048Z,9.11
2023-04-18T08:29:27.018Z,9.25
2023-04-18T08:30:25.127Z,9.31
2023-04-18T08:31:25.123Z,9.22
2023-04-18T08:32:26.039Z,9.34
2023-04-18T08:33:25.032Z,9.26
2023-04-18T08:34:25.066Z,9.29
2023-04-18T08:35:25.531Z,9.26
2023-04-18T08:36:25.029Z,9.23
2023-04-18T08:37:26.594Z,9.23
2023-04-18T08:38:25.004Z,9.32
2023-04-18T08:39:25.431Z,9.39
2023-04-18T08:40:27.545Z,9.48
2023-04-18T08:41:26.483Z,9.48
2023-04-18T08:42:24.990Z,9.41
2023-04-18T08:43:25.164Z,9.44
2023-04-18T08:44:24.940Z,9.43
2023-04-18T08:45:25.062Z,9.39
2023-04-18T08:46:25.153Z,9.43
2023-04-18T08:47:24.975Z,9.46
2023-04-18T08:48:24.995Z,9.43
2023-04-18T08:49:24.934Z,9.44
2023-04-18T08:50:25.881Z,9.41
2023-04-18T08:51:24.912Z,9.44
2023-04-18T08:52:24.899Z,9.44
2023-04-18T08:53:25.505Z,9.50
2023-04-18T08:54:26.706Z,9.50
2023-04-18T08:55:25.555Z,9.51
2023-04-18T08:56:24.847Z,9.62
2023-04-18T08:57:24.836Z,9.68
2023-04-18T08:58:24.817Z,9.55
2023-04-18T08:59:24.825Z,9.50
2023-04-18T09:00:24.846Z,9.56
2023-04-18T09:01:24.866Z,9.56
2023-04-18T09:02:24.874Z,9.58
2023-04-18T09:03:24.841Z,9.51
2023-04-18T09:04:25.008Z,9.58
2023-04-18T09:05:24.757Z,9.69
2023-04-18T09:06:26.056Z,9.69
2023-04-18T09:07:25.522Z,9.72
2023-04-18T09:08:24.725Z,9.76
2023-04-18T09:09:24.730Z,9.65
2023-04-18T09:10:26.585Z,9.64
2023-04-18T09:11:24.723Z,9.56
2023-04-18T09:12:24.702Z,9.50
2023-04-18T09:13:24.681Z,9.54
2023-04-18T09:14:28.675Z,9.51
2023-04-18T09:15:24.754Z,9.56
2023-04-18T09:16:25.666Z,9.58
2023-04-18T09:17:25.566Z,9.65
2023-04-18T09:18:24.637Z,9.79
2023-04-18T09:19:24.640Z,9.83
2023-04-18T09:20:24.682Z,9.83
2023-04-18T09:21:26.637Z,9.83
2023-04-18T09:22:24.610Z,9.94
2023-04-18T09:23:24.727Z,9.87
2023-04-18T09:24:24.599Z,9.98
2023-04-18T09:25:24.615Z,9.98
2023-04-18T09:26:24.789Z,9.89
2023-04-18T09:27:24.591Z,9.97
2023-04-18T09:28:24.590Z,10.04
2023-04-18T09:29:26.510Z,10.09
2023-04-18T09:30:24.599Z,10.02
2023-04-18T09:31:24.584Z,9.94
2023-04-18T09:32:24.588Z,9.94
2023-04-18T09:33:28.031Z,10.02
2023-04-18T09:34:25.533Z,10.04
2023-04-18T09:35:24.507Z,9.89
2023-04-18T09:36:24.578Z,9.89
2023-04-18T09:37:24.530Z,9.80
2023-04-18T09:38:24.494Z,9.79
2023-04-18T09:39:26.033Z,9.76
2023-04-18T09:40:24.534Z,9.87
2023-04-18T09:41:24.571Z,9.79
2023-04-18T09:42:26.741Z,9.89
2023-04-18T09:43:25.092Z,9.97
2023-04-18T09:44:24.453Z,10.05
2023-04-18T09:45:26.129Z,10.10
2023-04-18T09:46:24.466Z,10.20
2023-04-18T09:47:25.454Z,10.19
2023-04-18T09:48:24.419Z,10.30
2023-04-18T09:49:24.412Z,10.22
2023-04-18T09:50:26.023Z,10.25
2023-04-18T09:51:24.407Z,10.30
2023-04-18T09:52:24.444Z,10.54
2023-04-18T09:53:24.441Z,10.71
2023-04-18T09:54:26.104Z,10.87
2023-04-18T09:55:24.411Z,10.92
2023-04-18T09:56:24.368Z,10.81
2023-04-18T09:57:26.020Z,10.78
2023-04-18T09:58:24.346Z,10.72
2023-04-18T09:59:27.136Z,10.74
2023-04-18T10:00:24.586Z,10.71
2023-04-18T10:01:24.317Z,10.75
2023-04-18T10:02:24.373Z,10.78
2023-04-18T10:03:24.430Z,10.68
2023-04-18T10:04:24.315Z,10.67
2023-04-18T10:05:26.171Z,10.69
2023-04-18T10:06:24.286Z,10.92
2023-04-18T10:07:24.266Z,10.93
2023-04-18T10:08:24.261Z,10.86
2023-04-18T10:09:24.263Z,10.79
2023-04-18T10:10:24.262Z,10.86
2023-04-18T10:11:24.386Z,10.93
2023-04-18T10:12:24.213Z,11.12
2023-04-18T10:13:24.201Z,11.19
2023-04-18T10:14:24.210Z,11.19
2023-04-18T10:15:26.130Z,11.15
2023-04-18T10:16:24.229Z,11.08
2023-04-18T10:17:24.204Z,11.14
2023-04-18T10:18:24.207Z,11.14
2023-04-18T10:19:25.133Z,11.11
2023-04-18T10:20:25.020Z,11.25
2023-04-18T10:21:24.159Z,11.30
2023-04-18T10:22:24.171Z,11.33
2023-04-18T10:23:27.654Z,11.29
2023-04-18T10:24:24.146Z,11.41
2023-04-18T10:25:24.116Z,11.43
2023-04-18T10:26:24.114Z,11.36
2023-04-18T10:27:24.114Z,11.47
2023-04-18T10:28:24.093Z,11.63
2023-04-18T10:29:24.108Z,11.66
2023-04-18T10:30:24.083Z,11.52
2023-04-18T10:31:24.169Z,11.35
2023-04-18T10:32:24.101Z,11.23
2023-04-18T10:33:30.460Z,11.17
2023-04-18T10:34:26.111Z,11.18
2023-04-18T10:36:24.054Z,11.12
2023-04-18T10:37:24.023Z,11.07
2023-04-18T10:38:23.999Z,11.02
2023-04-18T10:39:24.006Z,11.18
2023-04-18T10:40:25.529Z,11.36
2023-04-18T10:41:23.980Z,11.30
2023-04-18T10:42:24.001Z,11.37
2023-04-18T10:43:23.984Z,11.33
2023-04-18T10:44:24.303Z,11.33
2023-04-18T10:45:23.957Z,11.25
2023-04-18T10:46:32.181Z,11.04
2023-04-18T10:47:26.038Z,10.84
2023-04-18T10:48:24.631Z,10.81
2023-04-18T10:49:26.057Z,10.82
2023-04-18T10:50:24.928Z,10.82
2023-04-18T10:51:23.959Z,10.94
2023-04-18T10:52:25.625Z,10.86
2023-04-18T10:53:23.881Z,10.99
2023-04-18T10:55:30.000Z,10.86
2023-04-18T10:56:29.931Z,10.74
2023-04-18T10:57:29.950Z,10.87
2023-04-18T10:58:31.018Z,10.81
2023-04-18T10:59:31.027Z,10.90
2023-04-18T11:00:31.025Z,10.86
2023-04-18T11:01:32.885Z,10.90
2023-04-18T11:02:32.699Z,11.07
2023-04-18T11:03:33.052Z,11.19
2023-04-18T11:04:31.010Z,11.07
2023-04-18T11:05:30.952Z,11.11
2023-04-18T11:06:32.541Z,11.08
2023-04-18T11:07:30.974Z,11.15
2023-04-18T11:08:30.934Z,11.18
2023-04-18T11:09:30.944Z,11.18
2023-04-18T11:10:30.929Z,11.15
2023-04-18T11:11:30.935Z,11.19
2023-04-18T11:12:30.925Z,11.18
2023-04-18T11:13:30.927Z,11.22
2023-04-18T11:14:31.538Z,11.17
2023-04-18T11:16:04.585Z,11.17
2023-04-18T11:16:30.939Z,11.25
2023-04-18T11:17:30.923Z,11.41
2023-04-18T11:18:31.150Z,11.41
2023-04-18T11:19:32.642Z,11.44
2023-04-18T11:20:32.880Z,11.37
2023-04-18T11:21:30.932Z,11.33
2023-04-18T11:22:30.830Z,11.40
2023-04-18T11:23:30.864Z,11.59
2023-04-18T11:24:30.819Z,11.73
2023-04-18T11:25:30.788Z,11.97
2023-04-18T11:26:30.792Z,12.00
2023-04-18T11:27:30.824Z,11.90
2023-04-18T11:28:30.816Z,11.66
2023-04-18T11:29:30.816Z,11.51
2023-04-18T11:30:30.757Z,11.50
2023-04-18T11:31:30.779Z,11.33
2023-04-18T11:32:31.870Z,11.23
2023-04-18T11:33:30.754Z,11.35
2023-04-18T11:34:30.798Z,11.40
2023-04-18T11:35:30.719Z,11.43
2023-04-18T11:36:30.724Z,11.43
2023-04-18T11:37:31.560Z,11.54
2023-04-18T11:38:31.567Z,11.55
2023-04-18T11:39:30.710Z,11.70
2023-04-18T11:40:30.695Z,11.75
2023-04-18T11:41:31.656Z,11.70
2023-04-18T11:42:30.670Z,11.84
2023-04-18T11:43:30.713Z,11.69
2023-04-18T11:44:30.659Z,11.62
2023-04-18T11:45:30.647Z,11.63
2023-04-18T11:46:30.693Z,11.60
2023-04-18T11:47:30.642Z,11.69
2023-04-18T11:48:30.621Z,11.84
2023-04-18T11:49:30.625Z,11.77
2023-04-18T11:50:30.599Z,11.81
2023-04-18T11:51:30.594Z,12.03
2023-04-18T11:52:30.801Z,12.03
2023-04-18T11:53:33.245Z,12.15
2023-04-18T11:54:30.593Z,12.29
2023-04-18T11:55:30.594Z,12.15
2023-04-18T11:56:33.513Z,12.17
2023-04-18T11:57:30.565Z,12.12
2023-04-18T11:58:30.550Z,12.03
2023-04-18T11:59:30.540Z,11.97
2023-04-18T12:00:30.551Z,11.87
2023-04-18T12:01:32.088Z,11.80
2023-04-18T21:22:05.727Z,10.20
2023-04-18T21:23:04.929Z,10.20
2023-04-18T21:24:06.022Z,10.20
2023-04-18T21:25:06.020Z,10.22
2023-04-18T21:26:06.739Z,10.20
2023-04-18T21:27:07.804Z,10.28
2023-04-18T21:28:07.734Z,10.19
2023-04-18T21:29:05.987Z,10.19
2023-04-18T21:30:05.979Z,10.22
2023-04-18T21:31:09.815Z,10.15
2023-04-18T21:32:05.951Z,10.19
2023-04-18T21:33:05.950Z,10.12
2023-04-18T21:34:07.828Z,10.13
2023-04-18T21:35:05.930Z,10.16
2023-04-18T21:36:05.901Z,10.16
2023-04-18T21:37:05.921Z,10.13
2023-04-18T21:38:05.927Z,10.10
2023-04-18T21:39:05.893Z,10.16
2023-04-18T21:40:07.741Z,10.16
2023-04-18T21:41:06.731Z,10.23
2023-04-18T21:42:05.871Z,10.20
2023-04-18T21:43:07.803Z,10.07
2023-04-18T21:44:07.797Z,10.10
2023-04-18T21:45:05.857Z,10.07
2023-04-18T21:46:05.925Z,9.99
2023-04-18T21:47:07.824Z,10.09
2023-04-18T21:48:38.776Z,9.95
2023-04-18T21:49:39.299Z,10.01
2023-04-18T21:50:05.814Z,10.01
2023-04-18T21:51:05.789Z,10.07
2023-04-18T21:52:38.345Z,10.16
2023-04-18T21:53:05.773Z,10.15
2023-04-18T21:54:06.769Z,10.05
2023-04-18T21:55:06.414Z,9.99
2023-04-18T21:56:05.795Z,10.04
2023-04-18T21:57:05.761Z,10.16
2023-04-18T21:58:07.408Z,10.10
2023-04-18T21:59:06.403Z,10.15
2023-04-18T22:00:06.491Z,10.12
2023-04-18T22:01:07.479Z,10.13
2023-04-18T22:02:05.815Z,10.19
2023-04-18T22:03:05.766Z,10.10
2023-04-18T22:04:05.809Z,10.15
2023-04-18T22:05:05.688Z,9.98
2023-04-18T22:06:05.677Z,10.05
2023-04-18T22:07:05.678Z,9.95
2023-04-18T22:08:05.670Z,9.97
2023-04-18T22:09:05.710Z,9.94
2023-04-18T22:10:05.645Z,9.97
2023-04-18T22:11:05.654Z,10.01
2023-04-18T22:12:06.337Z,9.87
2023-04-18T22:13:06.625Z,9.91
2023-04-18T22:14:05.615Z,9.91
2023-04-18T22:15:05.637Z,9.86
2023-04-18T22:16:05.636Z,9.87
2023-04-18T22:17:07.353Z,9.92
2023-04-18T22:18:07.528Z,9.92
2023-04-18T22:19:06.416Z,9.89
2023-04-18T22:20:05.569Z,9.89
2023-04-18T22:21:05.555Z,9.86
2023-04-18T22:22:05.547Z,9.84
2023-04-18T22:23:05.550Z,9.91
2023-04-18T22:24:07.333Z,9.95
2023-04-18T22:25:05.535Z,9.87
2023-04-18T22:26:05.513Z,9.89
2023-04-18T22:27:07.409Z,9.86
2023-04-18T22:28:05.502Z,9.86
2023-04-18T22:29:05.503Z,9.83
2023-04-18T22:30:05.486Z,9.83
2023-04-18T22:31:05.591Z,9.92
2023-04-18T22:32:05.498Z,9.86
2023-04-18T22:33:05.568Z,9.87
2023-04-18T22:34:05.455Z,9.84
2023-04-18T22:35:05.449Z,9.86
2023-04-18T22:36:05.439Z,9.83
2023-04-18T22:37:05.424Z,9.91
2023-04-18T22:38:05.427Z,9.92
2023-04-18T22:39:05.427Z,9.98
2023-04-18T22:40:05.422Z,9.98